X  Tanca Dades meteorològiques de l'aviació METAR     EHRD Rotterdam The Hague Airport
Temperatura
6°C Temperatura
5°C Rosada
93% Humitat



Vent
19 KM/H
12 MPH
5 M/S
10 NUS



230°
SO
Condicions actuals

Encapotat Encapotat
Pressió 1017.92 (hPa) - 30.06 (inHg)
Visibilitat 6.2 (milla) - 10 (km)
Aeroport
Codi aeroport EHRD

Ubicació: Rotterdam The Hague Airport
Distància: 16 (km)

Metar:
EHRD 181825Z AUTO 23010KT 9999 OVC041 06/05 Q1018 NOSIG

Temps: 18-01-2021 19:25 CET